Terminal Aerodrome Forecast
Issued by NWS Sterling, VA

Current Version | Previous Version | Graphics & Text | Print | Product List | Glossary On
Versions: 1 2 3 4 5 6 7 8 9 10 11 12 13 14 15 16 17 18 19 20 21 22 23 24 25 26 27 28 29
000
FTUS41 KLWX 042324 AAC
TAFIAD
TAF AMD
KIAD 042324Z 0423/0524 VRB04KT P6SM VCTS BKN050CB
      TEMPO 0423/0424 5SM -TSRA BR BKN030CB
     FM050000 35006KT P6SM SCT050
     FM051200 30004KT P6SM FEW250
     FM051500 30010G18KT P6SM FEW250=

USA.gov is the U.S. government's official web portal to all federal, state and local government web resources and services.